Time;durP1;ratioP1;P1;durP2;ratioP2;P2;SDS_P1;SDS_P2;PMS_P1;PMS_P2;Temp;Humidity;BMP_temperature;BMP_pressure;BME280_temperature;BME280_humidity;BME280_pressure;Samples;Min_cycle;Max_cycle;Signal;HPM_P1;HPM_P2
2022/03/30 00:01:14;;;;;;;13.80;5.53;;;;;;;;;;5048476;28;20060;-69
2022/03/30 00:03:42;;;;;;;15.52;5.60;;;;;;;;;;5045417;28;20048;-58
2022/03/30 00:06:09;;;;;;;17.00;4.97;;;;;;;;;;5044064;28;20053;-61
2022/03/30 00:08:35;;;;;;;14.43;5.82;;;;;;;;;;5033269;28;20053;-62
2022/03/30 00:11:04;;;;;;;21.30;6.38;;;;;;;;;;5065517;28;20044;-65
2022/03/30 00:13:30;;;;;;;14.98;5.45;;;;;;;;;;5044729;28;20060;-61
2022/03/30 00:15:57;;;;;;;16.95;6.43;;;;;;;;;;5044805;28;20048;-62
2022/03/30 00:18:24;;;;;;;17.98;5.72;;;;;;;;;;5045384;28;20132;-64
2022/03/30 00:20:52;;;;;;;20.33;6.85;;;;;;;;;;5034263;28;20079;-62
2022/03/30 00:23:19;;;;;;;17.73;5.70;;;;;;;;;;5048782;28;20045;-60
2022/03/30 00:25:45;;;;;;;12.65;5.40;;;;;;;;;;5037429;28;20072;-59
2022/03/30 00:28:12;;;;;;;15.13;5.80;;;;;;;;;;5048641;28;20062;-60
2022/03/30 00:30:39;;;;;;;14.45;4.82;;;;;;;;;;5061739;28;20071;-60
2022/03/30 00:33:06;;;;;;;16.25;6.45;;;;;;;;;;5048544;28;20076;-60
2022/03/30 00:35:32;;;;;;;16.10;6.05;;;;;;;;;;5044026;28;20056;-62
2022/03/30 00:38:01;;;;;;;15.60;6.20;;;;;;;;;;5048376;28;20048;-66
2022/03/30 00:40:28;;;;;;;15.27;5.68;;;;;;;;;;5053619;28;20100;-61
2022/03/30 00:42:55;;;;;;;19.23;6.47;;;;;;;;;;5045030;28;20053;-61
2022/03/30 00:45:24;;;;;;;16.92;5.07;;;;;;;;;;5030543;28;20057;-64
2022/03/30 00:47:51;;;;;;;23.48;6.43;;;;;;;;;;5064854;28;20110;-67
2022/03/30 00:50:23;;;;;;;16.50;5.28;;;;;;;;;;5063914;28;20048;-64
2022/03/30 00:52:51;;;;;;;18.13;5.72;;;;;;;;;;5085532;28;20056;-62
2022/03/30 00:55:19;;;;;;;14.60;5.38;;;;;;;;;;5079662;28;20135;-63
2022/03/30 00:57:46;;;;;;;28.10;7.07;;;;;;;;;;5050137;28;20045;-62
2022/03/30 01:00:14;;;;;;;17.23;6.28;;;;;;;;;;5049933;28;20072;-59
2022/03/30 01:02:43;;;;;;;13.10;5.03;;;;;;;;;;5046422;28;20057;-60
2022/03/30 01:05:10;;;;;;;18.48;5.78;;;;;;;;;;5051037;28;20085;-67
2022/03/30 01:07:36;;;;;;;15.23;6.00;;;;;;;;;;5043692;28;20140;-66
2022/03/30 01:10:05;;;;;;;14.70;5.18;;;;;;;;;;5051725;28;20076;-67
2022/03/30 01:12:36;;;;;;;12.50;4.93;;;;;;;;;;5039281;28;20163;-65
2022/03/30 01:15:03;;;;;;;20.35;5.82;;;;;;;;;;5047468;28;20049;-64
2022/03/30 01:17:30;;;;;;;12.85;4.78;;;;;;;;;;5044132;28;20147;-61
2022/03/30 01:19:57;;;;;;;15.20;5.63;;;;;;;;;;5063187;28;20053;-58
2022/03/30 01:22:25;;;;;;;15.38;5.90;;;;;;;;;;5033964;28;20063;-58
2022/03/30 01:24:51;;;;;;;11.27;5.40;;;;;;;;;;5063964;28;20041;-63
2022/03/30 01:27:18;;;;;;;17.15;5.22;;;;;;;;;;5034360;28;20304;-59
2022/03/30 01:32:29;;;;;;;15.70;5.65;;;;;;;;;;5031074;28;20053;-62
2022/03/30 01:34:57;;;;;;;13.38;4.40;;;;;;;;;;5046829;28;20139;-67
2022/03/30 01:37:26;;;;;;;17.33;5.40;;;;;;;;;;5059463;28;20076;-63
2022/03/30 01:39:55;;;;;;;18.45;5.50;;;;;;;;;;5063612;28;20114;-64
2022/03/30 01:42:21;;;;;;;13.65;4.72;;;;;;;;;;5059389;28;20049;-64
2022/03/30 01:44:49;;;;;;;18.00;5.93;;;;;;;;;;5063334;28;20048;-60
2022/03/30 01:47:15;;;;;;;13.77;5.13;;;;;;;;;;5059985;28;20103;-64
2022/03/30 01:49:43;;;;;;;24.45;5.53;;;;;;;;;;5063429;28;20076;-59
2022/03/30 01:52:10;;;;;;;15.77;5.43;;;;;;;;;;5064131;28;20061;-62
2022/03/30 01:54:39;;;;;;;17.88;5.88;;;;;;;;;;5040803;28;20055;-58
2022/03/30 01:57:06;;;;;;;22.27;5.93;;;;;;;;;;5009452;28;20057;-63
2022/03/30 01:59:33;;;;;;;18.45;6.50;;;;;;;;;;5003993;28;20053;-62
2022/03/30 02:02:00;;;;;;;21.40;6.63;;;;;;;;;;5020023;28;20065;-64
2022/03/30 02:04:27;;;;;;;15.05;5.57;;;;;;;;;;5022183;28;20057;-57
2022/03/30 02:06:54;;;;;;;16.13;5.57;;;;;;;;;;5025842;28;20056;-60
2022/03/30 02:09:24;;;;;;;12.85;5.32;;;;;;;;;;5010969;28;20061;-64
2022/03/30 02:11:54;;;;;;;18.83;5.20;;;;;;;;;;5006550;28;20057;-63
2022/03/30 02:14:21;;;;;;;11.43;4.53;;;;;;;;;;5011627;28;20054;-59
2022/03/30 02:16:47;;;;;;;13.82;4.57;;;;;;;;;;5027475;28;20057;-60
2022/03/30 02:19:14;;;;;;;15.65;5.30;;;;;;;;;;5016588;28;20096;-65
2022/03/30 02:21:41;;;;;;;15.77;5.03;;;;;;;;;;5021983;28;20068;-60
2022/03/30 02:24:08;;;;;;;13.82;4.63;;;;;;;;;;5018744;28;20053;-63
2022/03/30 02:26:34;;;;;;;14.43;4.72;;;;;;;;;;5009304;28;20046;-65
2022/03/30 02:29:06;;;;;;;13.77;4.80;;;;;;;;;;5008411;28;20056;-64
2022/03/30 02:31:32;;;;;;;14.73;5.40;;;;;;;;;;5029251;28;20057;-63
2022/03/30 02:33:59;;;;;;;13.10;4.32;;;;;;;;;;5023403;28;20057;-57
2022/03/30 02:36:26;;;;;;;14.63;5.13;;;;;;;;;;5026887;28;20057;-57
2022/03/30 02:38:53;;;;;;;23.23;6.30;;;;;;;;;;5027889;28;20126;-60
2022/03/30 02:41:19;;;;;;;14.98;4.88;;;;;;;;;;5024288;28;20045;-58
2022/03/30 02:43:46;;;;;;;14.43;5.00;;;;;;;;;;5027412;28;20152;-62
2022/03/30 02:46:14;;;;;;;17.70;6.05;;;;;;;;;;5008423;28;20132;-59
2022/03/30 02:48:41;;;;;;;11.63;4.70;;;;;;;;;;5007298;28;20064;-55
2022/03/30 02:51:09;;;;;;;16.02;4.32;;;;;;;;;;5003697;28;20060;-61
2022/03/30 02:53:35;;;;;;;15.70;4.82;;;;;;;;;;5006667;28;20108;-67
2022/03/30 02:56:02;;;;;;;14.60;5.13;;;;;;;;;;5021848;28;20049;-61
2022/03/30 02:58:33;;;;;;;12.18;5.07;;;;;;;;;;5046208;28;20045;-63
2022/03/30 03:01:00;;;;;;;14.40;5.20;;;;;;;;;;5033119;28;20060;-60
2022/03/30 03:03:28;;;;;;;11.52;4.07;;;;;;;;;;5045812;28;20060;-63
2022/03/30 03:05:55;;;;;;;13.10;4.13;;;;;;;;;;5041249;28;20045;-59
2022/03/30 03:08:21;;;;;;;15.77;5.05;;;;;;;;;;5045901;28;20331;-61
2022/03/30 03:10:50;;;;;;;17.73;5.30;;;;;;;;;;5041846;28;20041;-65
2022/03/30 03:13:16;;;;;;;;;;;;;;;;;;5046592;28;20060;-66
2022/03/30 03:15:43;;;;;;;12.80;4.93;;;;;;;;;;5041589;28;19920;-55
2022/03/30 03:18:10;;;;;;;16.23;4.85;;;;;;;;;;5040650;28;20049;-61
2022/03/30 03:20:41;;;;;;;13.68;5.13;;;;;;;;;;5029369;28;20111;-61
2022/03/30 03:23:08;;;;;;;11.93;4.32;;;;;;;;;;5047146;28;20053;-58
2022/03/30 03:25:35;;;;;;;14.45;5.32;;;;;;;;;;5050362;28;20056;-60
2022/03/30 03:28:02;;;;;;;13.80;5.15;;;;;;;;;;5029781;28;20084;-57
2022/03/30 03:30:30;;;;;;;11.88;4.20;;;;;;;;;;5029911;28;20088;-59
2022/03/30 03:32:57;;;;;;;14.05;4.80;;;;;;;;;;5056746;28;20060;-66
2022/03/30 03:35:24;;;;;;;13.68;5.18;;;;;;;;;;5049037;28;20073;-62
2022/03/30 03:37:52;;;;;;;19.42;4.93;;;;;;;;;;5044427;28;20110;-58
2022/03/30 03:40:19;;;;;;;13.85;4.90;;;;;;;;;;5049375;28;20086;-58
2022/03/30 03:42:46;;;;;;;14.98;5.00;;;;;;;;;;5035026;28;20084;-65
2022/03/30 03:45:13;;;;;;;12.25;4.28;;;;;;;;;;5029397;28;20061;-67
2022/03/30 03:47:41;;;;;;;14.23;4.95;;;;;;;;;;5024912;28;20139;-58
2022/03/30 03:50:08;;;;;;;10.70;4.85;;;;;;;;;;5029734;28;20057;-62
2022/03/30 03:52:35;;;;;;;15.43;4.15;;;;;;;;;;5030560;28;20049;-60
2022/03/30 03:55:04;;;;;;;11.30;4.72;;;;;;;;;;5066843;28;20056;-61
2022/03/30 03:57:32;;;;;;;;;;;;;;;;;;5050163;28;20037;-64
2022/03/30 04:00:00;;;;;;;13.93;4.55;;;;;;;;;;5055105;28;19924;-66
2022/03/30 04:02:26;;;;;;;10.57;4.73;;;;;;;;;;5046296;28;20052;-64
2022/03/30 04:04:53;;;;;;;14.68;4.18;;;;;;;;;;5050139;28;20311;-64
2022/03/30 04:07:19;;;;;;;12.80;4.90;;;;;;;;;;5024347;28;20057;-60
2022/03/30 04:09:46;;;;;;;14.23;5.10;;;;;;;;;;5043336;28;20063;-61
2022/03/30 04:12:14;;;;;;;12.98;4.63;;;;;;;;;;5040069;28;20053;-66
2022/03/30 04:14:41;;;;;;;17.48;4.97;;;;;;;;;;5041921;28;20049;-64
2022/03/30 04:17:07;;;;;;;14.32;4.55;;;;;;;;;;5049059;28;20106;-62
2022/03/30 04:19:34;;;;;;;15.70;4.60;;;;;;;;;;5044119;28;20053;-64
2022/03/30 04:22:01;;;;;;;15.35;5.00;;;;;;;;;;5048953;28;20056;-57
2022/03/30 04:24:28;;;;;;;14.10;5.30;;;;;;;;;;5043779;28;20049;-60
2022/03/30 04:26:55;;;;;;;15.70;5.20;;;;;;;;;;5047106;28;20121;-60
2022/03/30 04:29:23;;;;;;;10.25;4.15;;;;;;;;;;5043352;28;20162;-60
2022/03/30 04:31:50;;;;;;;14.32;3.92;;;;;;;;;;5048479;28;20057;-62
2022/03/30 04:34:17;;;;;;;12.25;4.13;;;;;;;;;;5044224;28;20059;-61
2022/03/30 04:36:43;;;;;;;12.02;4.38;;;;;;;;;;5047858;28;20057;-64
2022/03/30 04:39:10;;;;;;;15.20;4.82;;;;;;;;;;5043703;28;20045;-61
2022/03/30 04:41:37;;;;;;;13.50;4.40;;;;;;;;;;5047834;28;20148;-64
2022/03/30 04:44:03;;;;;;;11.38;4.30;;;;;;;;;;5043155;28;20080;-58
2022/03/30 04:46:31;;;;;;;11.63;4.63;;;;;;;;;;5047273;28;20045;-67
2022/03/30 04:48:58;;;;;;;11.55;4.13;;;;;;;;;;5048457;28;20048;-63
2022/03/30 04:51:25;;;;;;;13.38;4.13;;;;;;;;;;5026001;28;20061;-61
2022/03/30 04:53:51;;;;;;;10.20;4.28;;;;;;;;;;5028566;28;20046;-65
2022/03/30 04:56:18;;;;;;;17.35;4.95;;;;;;;;;;5025275;28;20107;-59
2022/03/30 04:58:45;;;;;;;11.55;4.13;;;;;;;;;;5028132;28;20041;-60
2022/03/30 05:01:11;;;;;;;13.77;4.72;;;;;;;;;;5036862;28;20048;-59
2022/03/30 05:03:39;;;;;;;15.20;5.20;;;;;;;;;;5047765;28;20069;-63
2022/03/30 05:06:06;;;;;;;12.20;4.68;;;;;;;;;;5027621;28;20045;-61
2022/03/30 05:08:33;;;;;;;10.93;4.18;;;;;;;;;;5053398;28;20048;-63
2022/03/30 05:11:00;;;;;;;12.85;4.28;;;;;;;;;;5033207;28;20061;-64
2022/03/30 05:13:27;;;;;;;10.60;3.97;;;;;;;;;;5036388;28;20053;-57
2022/03/30 05:15:53;;;;;;;21.77;6.57;;;;;;;;;;5025303;28;20068;-58
2022/03/30 05:18:22;;;;;;;11.68;4.47;;;;;;;;;;5038646;28;20053;-62
2022/03/30 05:20:48;;;;;;;;;;;;;;;;;;5031631;28;20087;-56
2022/03/30 05:23:16;;;;;;;34.03;9.52;;;;;;;;;;5034110;28;19932;-60
2022/03/30 05:25:43;;;;;;;14.32;4.95;;;;;;;;;;5029485;28;20053;-59
2022/03/30 05:28:10;;;;;;;13.10;5.18;;;;;;;;;;5038134;28;20079;-63
2022/03/30 05:30:37;;;;;;;12.88;4.32;;;;;;;;;;5037721;28;20052;-60
2022/03/30 05:33:03;;;;;;;11.30;4.53;;;;;;;;;;5030767;28;20048;-57
2022/03/30 05:35:30;;;;;;;12.65;4.97;;;;;;;;;;5034777;28;20060;-58
2022/03/30 05:37:56;;;;;;;12.20;5.40;;;;;;;;;;5030532;28;20083;-58
2022/03/30 05:40:25;;;;;;;13.52;4.72;;;;;;;;;;5039587;28;20061;-56
2022/03/30 05:42:51;;;;;;;11.07;4.53;;;;;;;;;;5030653;28;20061;-60
2022/03/30 05:45:18;;;;;;;13.13;4.78;;;;;;;;;;5031674;28;20068;-58
2022/03/30 05:47:44;;;;;;;16.08;5.93;;;;;;;;;;5027052;28;20060;-60
2022/03/30 05:50:12;;;;;;;14.80;5.63;;;;;;;;;;5029932;28;20057;-56
2022/03/30 05:52:39;;;;;;;13.80;5.03;;;;;;;;;;5022726;28;20058;-62
2022/03/30 05:55:08;;;;;;;15.18;5.18;;;;;;;;;;5026314;28;20053;-59
2022/03/30 05:57:39;;;;;;;22.00;5.80;;;;;;;;;;5023353;28;20152;-56
2022/03/30 06:00:08;;;;;;;10.48;4.25;;;;;;;;;;5026183;28;20095;-57
2022/03/30 06:02:35;;;;;;;14.05;4.60;;;;;;;;;;5022862;28;20046;-59
2022/03/30 06:05:01;;;;;;;12.43;5.15;;;;;;;;;;5026875;28;20069;-59
2022/03/30 06:07:28;;;;;;;12.27;3.97;;;;;;;;;;5009881;28;20045;-61
2022/03/30 06:09:57;;;;;;;13.95;5.30;;;;;;;;;;5019639;28;20053;-56
2022/03/30 06:12:24;;;;;;;;;;;;;;;;;;5024770;28;20060;-59
2022/03/30 06:14:53;;;;;;;10.90;4.43;;;;;;;;;;5028490;28;19924;-57
2022/03/30 06:17:20;;;;;;;12.80;4.38;;;;;;;;;;5029593;28;20079;-60
2022/03/30 06:19:48;;;;;;;17.02;5.22;;;;;;;;;;5034596;28;20057;-61
2022/03/30 06:22:14;;;;;;;16.83;5.45;;;;;;;;;;5054139;28;20075;-56
2022/03/30 06:24:41;;;;;;;11.95;4.00;;;;;;;;;;5035752;28;20045;-55
2022/03/30 06:27:09;;;;;;;15.20;4.75;;;;;;;;;;5036880;28;20144;-59
2022/03/30 06:29:36;;;;;;;13.98;4.57;;;;;;;;;;5022744;28;20085;-57
2022/03/30 06:32:05;;;;;;;19.42;5.72;;;;;;;;;;5025521;28;20068;-59
2022/03/30 06:34:31;;;;;;;;;;;;;;;;;;5023737;28;20111;-62
2022/03/30 06:36:58;;;;;;;13.45;4.65;;;;;;;;;;5026235;28;19978;-56
2022/03/30 06:39:26;;;;;;;13.32;4.72;;;;;;;;;;5023290;28;20061;-54
2022/03/30 06:41:53;;;;;;;19.13;5.55;;;;;;;;;;5043126;28;20056;-58
2022/03/30 06:44:19;;;;;;;22.30;6.68;;;;;;;;;;5033781;28;20075;-59
2022/03/30 06:46:46;;;;;;;15.45;5.35;;;;;;;;;;5083321;28;20084;-62
2022/03/30 06:49:18;;;;;;;13.27;4.53;;;;;;;;;;5058157;28;20056;-57
2022/03/30 06:51:45;;;;;;;13.88;5.35;;;;;;;;;;5036982;28;20049;-57
2022/03/30 06:54:11;;;;;;;18.65;5.65;;;;;;;;;;5044171;28;20049;-56
2022/03/30 06:56:38;;;;;;;20.02;6.18;;;;;;;;;;5052308;28;20044;-60
2022/03/30 06:59:04;;;;;;;17.13;5.47;;;;;;;;;;5050941;28;20063;-56
2022/03/30 07:01:31;;;;;;;14.25;4.65;;;;;;;;;;5045501;28;20053;-62
2022/03/30 07:03:57;;;;;;;15.13;4.80;;;;;;;;;;5044107;28;20096;-60
2022/03/30 07:06:25;;;;;;;21.17;6.38;;;;;;;;;;5041344;28;20055;-62
2022/03/30 07:11:36;;;;;;;23.65;5.93;;;;;;;;;;5029606;28;20044;-59
2022/03/30 07:14:03;;;;;;;24.27;6.30;;;;;;;;;;5053847;28;20067;-60
2022/03/30 07:16:30;;;;;;;18.88;6.43;;;;;;;;;;5031117;28;20164;-61
2022/03/30 07:18:57;;;;;;;19.17;6.63;;;;;;;;;;5039804;28;20045;-55
2022/03/30 07:21:24;;;;;;;17.85;4.82;;;;;;;;;;5036109;28;20053;-55
2022/03/30 07:23:52;;;;;;;13.93;4.90;;;;;;;;;;5045912;28;20055;-58
2022/03/30 07:26:20;;;;;;;14.60;4.55;;;;;;;;;;5042193;28;20113;-56
2022/03/30 07:28:46;;;;;;;18.37;4.60;;;;;;;;;;5056660;28;20124;-57
2022/03/30 07:31:13;;;;;;;20.38;6.45;;;;;;;;;;5053514;28;20053;-59
2022/03/30 07:33:40;;;;;;;16.50;5.53;;;;;;;;;;5038837;28;20056;-57
2022/03/30 07:36:08;;;;;;;22.92;6.25;;;;;;;;;;5048501;28;20068;-57
2022/03/30 07:38:35;;;;;;;24.77;6.80;;;;;;;;;;5032465;28;20143;-59
2022/03/30 07:41:03;;;;;;;22.13;5.55;;;;;;;;;;5026952;28;20061;-60
2022/03/30 07:43:30;;;;;;;16.27;6.38;;;;;;;;;;5029700;28;20083;-58
2022/03/30 07:45:57;;;;;;;10.50;4.78;;;;;;;;;;5032121;28;20045;-62
2022/03/30 07:48:23;;;;;;;12.90;4.68;;;;;;;;;;5027816;28;20373;-64
2022/03/30 07:50:50;;;;;;;15.07;4.68;;;;;;;;;;5032585;28;20064;-60
2022/03/30 07:53:17;;;;;;;12.70;5.10;;;;;;;;;;5035777;28;20083;-66
2022/03/30 07:55:43;;;;;;;20.17;5.63;;;;;;;;;;5030641;28;20084;-59
2022/03/30 07:58:12;;;;;;;14.90;5.43;;;;;;;;;;5009774;28;20056;-61
2022/03/30 08:00:39;;;;;;;11.77;4.65;;;;;;;;;;5019805;28;20058;-54
2022/03/30 08:03:06;;;;;;;14.93;4.65;;;;;;;;;;5004495;28;20058;-60
2022/03/30 08:05:33;;;;;;;13.68;4.40;;;;;;;;;;5016878;28;20069;-53
2022/03/30 08:08:00;;;;;;;13.93;5.22;;;;;;;;;;5002080;28;20042;-65
2022/03/30 08:10:30;;;;;;;19.15;6.47;;;;;;;;;;5010786;28;20113;-61
2022/03/30 08:12:57;;;;;;;12.65;4.72;;;;;;;;;;5006189;28;20046;-67
2022/03/30 08:15:25;;;;;;;16.33;5.15;;;;;;;;;;5010379;28;20053;-60
2022/03/30 08:17:54;;;;;;;16.55;4.80;;;;;;;;;;5006261;28;20053;-59
2022/03/30 08:23:06;;;;;;;12.70;4.38;;;;;;;;;;5023222;28;20064;-62
2022/03/30 08:25:33;;;;;;;17.58;6.25;;;;;;;;;;5025458;28;20077;-62
2022/03/30 08:28:00;;;;;;;17.77;5.22;;;;;;;;;;5024015;28;20057;-60
2022/03/30 08:30:29;;;;;;;16.15;5.43;;;;;;;;;;5028641;28;20053;-56
2022/03/30 08:32:56;;;;;;;17.98;4.72;;;;;;;;;;5022851;28;20060;-56
2022/03/30 08:35:22;;;;;;;15.57;4.45;;;;;;;;;;5028225;28;20061;-61
2022/03/30 08:37:49;;;;;;;11.23;3.88;;;;;;;;;;5027601;28;20057;-62
2022/03/30 08:40:16;;;;;;;10.38;3.75;;;;;;;;;;5021568;28;20056;-59
2022/03/30 08:42:42;;;;;;;14.57;5.05;;;;;;;;;;5026498;28;20049;-58
2022/03/30 08:45:09;;;;;;;11.70;4.63;;;;;;;;;;5021950;28;20054;-63
2022/03/30 08:47:38;;;;;;;15.07;3.42;;;;;;;;;;5046148;28;20053;-65
2022/03/30 08:50:05;;;;;;;12.18;4.78;;;;;;;;;;5022974;28;20073;-62
2022/03/30 08:52:32;;;;;;;21.27;5.33;;;;;;;;;;5009771;28;20148;-59
2022/03/30 08:54:59;;;;;;;13.20;4.65;;;;;;;;;;5022227;28;20053;-58
2022/03/30 08:57:26;;;;;;;12.00;4.25;;;;;;;;;;5056516;28;20072;-56
2022/03/30 08:59:58;;;;;;;16.27;5.22;;;;;;;;;;5050557;28;20155;-62
2022/03/30 09:02:24;;;;;;;13.43;4.75;;;;;;;;;;5049793;28;20057;-62
2022/03/30 09:05:10;;;;;;;14.40;4.78;;;;;;;;;;5051186;28;20056;-57
2022/03/30 09:07:37;;;;;;;14.73;5.88;;;;;;;;;;5064287;28;20048;-66
2022/03/30 09:10:04;;;;;;;13.70;4.40;;;;;;;;;;5045493;28;20051;-57
2022/03/30 09:12:31;;;;;;;11.10;4.35;;;;;;;;;;5052599;28;20051;-56
2022/03/30 09:15:01;;;;;;;12.55;4.75;;;;;;;;;;5062945;28;20041;-59
2022/03/30 09:17:36;;;;;;;17.95;4.95;;;;;;;;;;5056041;28;20063;-62
2022/03/30 09:20:05;;;;;;;8.55;3.50;;;;;;;;;;5068014;28;20056;-62
2022/03/30 09:22:33;;;;;;;13.05;4.25;;;;;;;;;;5052323;28;20048;-62
2022/03/30 09:25:00;;;;;;;11.47;4.53;;;;;;;;;;5047199;28;20058;-61
2022/03/30 09:27:27;;;;;;;12.55;3.80;;;;;;;;;;5055148;28;20390;-67
2022/03/30 09:29:54;;;;;;;14.40;5.07;;;;;;;;;;5057839;28;20044;-64
2022/03/30 09:32:20;;;;;;;14.82;4.90;;;;;;;;;;5071323;28;20061;-57
2022/03/30 09:34:48;;;;;;;12.68;4.60;;;;;;;;;;5049976;28;20061;-63
2022/03/30 09:37:16;;;;;;;10.93;4.55;;;;;;;;;;5051492;28;20052;-62
2022/03/30 09:39:46;;;;;;;17.73;4.72;;;;;;;;;;5053641;28;20057;-64
2022/03/30 09:42:14;;;;;;;13.15;4.25;;;;;;;;;;5071065;28;20048;-58
2022/03/30 09:44:48;;;;;;;16.40;4.43;;;;;;;;;;5048063;28;20061;-59
2022/03/30 09:47:15;;;;;;;13.82;4.82;;;;;;;;;;5036457;28;20053;-63
2022/03/30 09:49:43;;;;;;;11.65;3.50;;;;;;;;;;5043425;28;20072;-58
2022/03/30 09:52:13;;;;;;;14.30;3.97;;;;;;;;;;5044036;28;20056;-60
2022/03/30 09:54:42;;;;;;;13.98;3.40;;;;;;;;;;5049433;28;20069;-55
2022/03/30 09:57:13;;;;;;;12.52;4.60;;;;;;;;;;5020878;28;20060;-63
2022/03/30 10:00:03;;;;;;;12.95;4.40;;;;;;;;;;5034356;28;20053;-60
2022/03/30 10:02:31;;;;;;;11.57;4.05;;;;;;;;;;5043524;28;20049;-59
2022/03/30 10:04:58;;;;;;;11.43;4.50;;;;;;;;;;5033908;28;20140;-61
2022/03/30 10:07:24;;;;;;;11.68;3.72;;;;;;;;;;5008002;28;20052;-61
2022/03/30 10:09:53;;;;;;;8.82;3.45;;;;;;;;;;5017291;28;20084;-66
2022/03/30 10:12:21;;;;;;;10.88;4.10;;;;;;;;;;5012048;28;20050;-66
2022/03/30 10:14:48;;;;;;;8.32;3.60;;;;;;;;;;5012764;28;20053;-66
2022/03/30 10:17:16;;;;;;;10.15;3.53;;;;;;;;;;5005934;28;20162;-59
2022/03/30 10:19:44;;;;;;;10.60;3.47;;;;;;;;;;5014648;28;20122;-59
2022/03/30 10:22:17;;;;;;;10.00;3.30;;;;;;;;;;5005950;28;20108;-63
2022/03/30 10:24:50;;;;;;;9.82;3.33;;;;;;;;;;5015261;28;20057;-59
2022/03/30 10:27:23;;;;;;;8.25;2.88;;;;;;;;;;5017230;28;20058;-60
2022/03/30 10:29:52;;;;;;;8.52;3.10;;;;;;;;;;5018649;28;20052;-64
2022/03/30 10:32:20;;;;;;;6.97;2.70;;;;;;;;;;5020551;28;20096;-60
2022/03/30 10:34:52;;;;;;;9.13;3.20;;;;;;;;;;5012226;28;20052;-58
2022/03/30 10:37:26;;;;;;;11.23;3.28;;;;;;;;;;5020457;28;20111;-60
2022/03/30 10:39:58;;;;;;;10.93;3.17;;;;;;;;;;5018729;28;20063;-65
2022/03/30 10:42:27;;;;;;;10.55;3.20;;;;;;;;;;5017124;28;20060;-60
2022/03/30 10:44:57;;;;;;;8.95;3.35;;;;;;;;;;5011113;28;20050;-61
2022/03/30 10:47:25;;;;;;;8.25;2.80;;;;;;;;;;5017260;28;20057;-64
2022/03/30 10:49:54;;;;;;;10.20;3.45;;;;;;;;;;5012375;28;20053;-62
2022/03/30 10:52:30;;;;;;;8.85;3.20;;;;;;;;;;5018114;28;20140;-63
2022/03/30 10:55:16;;;;;;;9.00;3.03;;;;;;;;;;5010183;28;20081;-63
2022/03/30 10:57:49;;;;;;;11.68;3.70;;;;;;;;;;5010022;28;20050;-62
2022/03/30 11:00:20;;;;;;;7.97;3.03;;;;;;;;;;5005757;28;20049;-61
2022/03/30 11:02:46;;;;;;;8.25;3.00;;;;;;;;;;5013364;28;20058;-60
2022/03/30 11:05:14;;;;;;;7.68;2.45;;;;;;;;;;5004732;28;20054;-62
2022/03/30 11:07:41;;;;;;;7.43;3.05;;;;;;;;;;5008672;28;20056;-69
2022/03/30 11:10:15;;;;;;;7.05;2.88;;;;;;;;;;5006000;28;20054;-63
2022/03/30 11:15:59;;;;;;;9.45;3.33;;;;;;;;;;4998642;28;20437;-63
2022/03/30 11:18:28;;;;;;;10.02;3.78;;;;;;;;;;5002573;28;20368;-63
2022/03/30 11:21:14;;;;;;;9.65;3.05;;;;;;;;;;5025378;28;20144;-66
2022/03/30 11:23:53;;;;;;;8.20;2.83;;;;;;;;;;5004931;28;20157;-61
2022/03/30 11:26:20;;;;;;;8.80;3.50;;;;;;;;;;4997345;28;20058;-61
2022/03/30 11:28:48;;;;;;;8.00;2.95;;;;;;;;;;4992047;28;20050;-59
2022/03/30 11:31:19;;;;;;;7.10;2.80;;;;;;;;;;4997133;28;20061;-60
2022/03/30 11:34:07;;;;;;;8.30;2.97;;;;;;;;;;5022085;28;20100;-64
2022/03/30 11:36:34;;;;;;;8.60;3.90;;;;;;;;;;4983474;28;20397;-60
2022/03/30 11:39:03;;;;;;;10.57;3.35;;;;;;;;;;5010159;28;20058;-59
2022/03/30 11:41:29;;;;;;;7.40;2.97;;;;;;;;;;4993624;28;20061;-60
2022/03/30 11:46:40;;;;;;;8.52;2.75;;;;;;;;;;4999661;28;20057;-62
2022/03/30 11:49:11;;;;;;;7.75;2.65;;;;;;;;;;5004460;28;20062;-58
2022/03/30 11:51:39;;;;;;;9.48;3.60;;;;;;;;;;4997562;28;20096;-63
2022/03/30 11:54:13;;;;;;;13.65;3.80;;;;;;;;;;5001756;28;20054;-59
2022/03/30 11:56:40;;;;;;;8.00;3.17;;;;;;;;;;4998420;28;20150;-59
2022/03/30 11:59:07;;;;;;;6.38;2.80;;;;;;;;;;5000561;28;20484;-61
2022/03/30 12:01:35;;;;;;;7.55;2.97;;;;;;;;;;4993944;28;20046;-58
2022/03/30 12:04:02;;;;;;;6.93;2.80;;;;;;;;;;5001480;28;20050;-60
2022/03/30 12:06:29;;;;;;;7.22;2.92;;;;;;;;;;4995782;28;20054;-61
2022/03/30 12:08:58;;;;;;;5.70;2.55;;;;;;;;;;5003010;28;20105;-59
2022/03/30 12:11:29;;;;;;;7.90;3.13;;;;;;;;;;4996235;28;20046;-61
2022/03/30 12:13:56;;;;;;;10.00;2.92;;;;;;;;;;5001919;28;20066;-59
2022/03/30 12:16:24;;;;;;;7.68;2.95;;;;;;;;;;5002818;28;20062;-60
2022/03/30 12:18:52;;;;;;;8.02;2.60;;;;;;;;;;4996614;28;20058;-63
2022/03/30 12:21:20;;;;;;;7.53;2.80;;;;;;;;;;4999758;28;20058;-63
2022/03/30 12:23:50;;;;;;;6.70;2.92;;;;;;;;;;4998120;28;20516;-59
2022/03/30 12:26:18;;;;;;;7.80;2.95;;;;;;;;;;4991921;28;20073;-59
2022/03/30 12:28:45;;;;;;;6.80;2.55;;;;;;;;;;4984323;28;20070;-60
2022/03/30 12:31:15;;;;;;;6.65;2.15;;;;;;;;;;4987970;28;20145;-58
2022/03/30 12:33:45;;;;;;;8.80;3.28;;;;;;;;;;4983083;28;20054;-60
2022/03/30 12:36:16;;;;;;;10.52;2.92;;;;;;;;;;4987562;28;20050;-60
2022/03/30 12:38:43;;;;;;;6.07;2.40;;;;;;;;;;4984023;28;20061;-63
2022/03/30 12:41:11;;;;;;;6.43;2.55;;;;;;;;;;4987966;28;20054;-61
2022/03/30 12:43:42;;;;;;;7.25;2.60;;;;;;;;;;4983549;28;20160;-60
2022/03/30 12:46:17;;;;;;;9.07;2.83;;;;;;;;;;4988281;28;20058;-62
2022/03/30 12:48:45;;;;;;;7.07;2.50;;;;;;;;;;4982938;28;20089;-59
2022/03/30 12:51:18;;;;;;;8.77;3.00;;;;;;;;;;4987887;28;20132;-61
2022/03/30 12:53:46;;;;;;;7.70;2.55;;;;;;;;;;4984316;28;20455;-61
2022/03/30 12:56:14;;;;;;;9.05;3.38;;;;;;;;;;4988048;28;20054;-62
2022/03/30 12:58:52;;;;;;;7.70;2.35;;;;;;;;;;4983569;28;20058;-66
2022/03/30 13:01:29;;;;;;;6.80;2.33;;;;;;;;;;4985853;28;20091;-63
2022/03/30 13:03:55;;;;;;;7.57;2.60;;;;;;;;;;4982323;28;20045;-60
2022/03/30 13:06:22;;;;;;;6.53;2.90;;;;;;;;;;4987055;28;20042;-68
2022/03/30 13:09:02;;;;;;;7.40;3.13;;;;;;;;;;4982559;28;20084;-71
2022/03/30 13:11:29;;;;;;;7.13;2.78;;;;;;;;;;4987395;28;20060;-67
2022/03/30 13:13:57;;;;;;;5.18;2.50;;;;;;;;;;4982560;28;20050;-61
2022/03/30 13:16:28;;;;;;;7.28;2.47;;;;;;;;;;4987686;28;20054;-63
2022/03/30 13:19:01;;;;;;;5.55;2.65;;;;;;;;;;4986055;28;20074;-65
2022/03/30 13:21:35;;;;;;;7.22;3.10;;;;;;;;;;4987364;28;20511;-67
2022/03/30 13:24:09;;;;;;;6.03;2.47;;;;;;;;;;4989204;28;20058;-67
2022/03/30 13:26:37;;;;;;;8.02;2.53;;;;;;;;;;4986858;28;20185;-60
2022/03/30 13:29:05;;;;;;;9.68;2.95;;;;;;;;;;4988847;28;20059;-61
2022/03/30 13:31:32;;;;;;;;;;;;;;;;;;4981493;28;20136;-65
2022/03/30 13:33:59;;;;;;;6.30;2.72;;;;;;;;;;4987209;28;19932;-63
2022/03/30 13:36:28;;;;;;;5.93;2.42;;;;;;;;;;4982592;28;20452;-60
2022/03/30 13:38:56;;;;;;;;;;;;;;;;;;4987594;28;20065;-66
2022/03/30 13:41:23;;;;;;;7.05;2.60;;;;;;;;;;4983162;28;20415;-67
2022/03/30 13:43:50;;;;;;;7.60;2.20;;;;;;;;;;4987420;28;20165;-60
2022/03/30 13:46:19;;;;;;;5.18;2.05;;;;;;;;;;4982231;28;20078;-61
2022/03/30 13:48:46;;;;;;;4.82;2.10;;;;;;;;;;4987695;28;20476;-61
2022/03/30 13:51:14;;;;;;;7.13;2.80;;;;;;;;;;4981194;28;20073;-62
2022/03/30 13:53:41;;;;;;;5.18;2.33;;;;;;;;;;4985663;28;20054;-65
2022/03/30 13:56:09;;;;;;;5.60;2.30;;;;;;;;;;4981002;28;20129;-59
2022/03/30 13:58:36;;;;;;;6.90;2.90;;;;;;;;;;4986068;28;20112;-65
2022/03/30 14:01:03;;;;;;;6.43;2.35;;;;;;;;;;4981442;28;20066;-63
2022/03/30 14:03:31;;;;;;;7.23;2.63;;;;;;;;;;4986811;28;20477;-62
2022/03/30 14:05:58;;;;;;;6.53;2.40;;;;;;;;;;4983334;28;20081;-60
2022/03/30 14:08:25;;;;;;;5.00;2.20;;;;;;;;;;4985095;28;20065;-64
2022/03/30 14:10:53;;;;;;;4.38;2.20;;;;;;;;;;4986048;28;20062;-66
2022/03/30 14:13:20;;;;;;;4.35;2.10;;;;;;;;;;4983670;28;20062;-66
2022/03/30 14:15:46;;;;;;;5.40;2.00;;;;;;;;;;4989572;28;20065;-59
2022/03/30 14:18:13;;;;;;;9.02;2.28;;;;;;;;;;4984661;28;20046;-60
2022/03/30 14:20:43;;;;;;;5.60;1.90;;;;;;;;;;4991627;28;20694;-66
2022/03/30 14:23:09;;;;;;;4.07;2.05;;;;;;;;;;4985994;28;20054;-59
2022/03/30 14:25:36;;;;;;;5.18;2.17;;;;;;;;;;4989817;28;20061;-59
2022/03/30 14:28:04;;;;;;;4.00;1.92;;;;;;;;;;4984971;28;20060;-59
2022/03/30 14:30:31;;;;;;;11.00;2.58;;;;;;;;;;4989434;28;20054;-61
2022/03/30 14:32:58;;;;;;;6.07;2.03;;;;;;;;;;4985840;28;20050;-59
2022/03/30 14:35:25;;;;;;;7.15;2.00;;;;;;;;;;4989751;28;20049;-61
2022/03/30 14:37:53;;;;;;;4.70;1.92;;;;;;;;;;4983273;28;20555;-63
2022/03/30 14:40:20;;;;;;;4.38;2.10;;;;;;;;;;4989005;28;20049;-67
2022/03/30 14:42:47;;;;;;;3.92;1.63;;;;;;;;;;4985625;28;20045;-62
2022/03/30 14:45:14;;;;;;;4.75;2.08;;;;;;;;;;4990064;28;20084;-63
2022/03/30 14:47:41;;;;;;;5.07;2.37;;;;;;;;;;5003934;28;20049;-68
2022/03/30 14:50:09;;;;;;;3.90;1.98;;;;;;;;;;4989877;28;20064;-68
2022/03/30 14:52:36;;;;;;;5.10;1.92;;;;;;;;;;4988518;28;20037;-60
2022/03/30 14:55:04;;;;;;;4.00;1.60;;;;;;;;;;5020370;28;20495;-60